sensor_id;sensor_type;location;lat;lon;timestamp;P1;durP1;ratioP1;P2;durP2;ratioP2
64313;SDS011;50650;48.180;11.524;2024-01-30T00:02:20;18.50;;;7.15;;
64313;SDS011;50650;48.180;11.524;2024-01-30T00:04:46;14.82;;;6.55;;
64313;SDS011;50650;48.180;11.524;2024-01-30T00:07:12;13.38;;;6.80;;
64313;SDS011;50650;48.180;11.524;2024-01-30T00:09:40;12.50;;;6.47;;
64313;SDS011;50650;48.180;11.524;2024-01-30T00:12:09;14.48;;;6.70;;
64313;SDS011;50650;48.180;11.524;2024-01-30T00:14:35;17.10;;;6.80;;
64313;SDS011;50650;48.180;11.524;2024-01-30T00:17:01;18.58;;;7.47;;
64313;SDS011;50650;48.180;11.524;2024-01-30T00:19:28;13.45;;;6.43;;
64313;SDS011;50650;48.180;11.524;2024-01-30T00:21:53;17.23;;;6.45;;
64313;SDS011;50650;48.180;11.524;2024-01-30T00:24:19;12.50;;;6.43;;
64313;SDS011;50650;48.180;11.524;2024-01-30T00:26:47;16.45;;;7.07;;
64313;SDS011;50650;48.180;11.524;2024-01-30T00:29:14;15.13;;;6.00;;
64313;SDS011;50650;48.180;11.524;2024-01-30T00:31:44;15.57;;;6.43;;
64313;SDS011;50650;48.180;11.524;2024-01-30T00:34:10;15.38;;;5.65;;
64313;SDS011;50650;48.180;11.524;2024-01-30T00:36:37;11.93;;;5.53;;
64313;SDS011;50650;48.180;11.524;2024-01-30T00:39:03;12.27;;;6.10;;
64313;SDS011;50650;48.180;11.524;2024-01-30T00:41:31;11.80;;;6.20;;
64313;SDS011;50650;48.180;11.524;2024-01-30T00:43:59;11.57;;;5.82;;
64313;SDS011;50650;48.180;11.524;2024-01-30T00:46:25;16.48;;;6.70;;
64313;SDS011;50650;48.180;11.524;2024-01-30T00:48:51;15.02;;;6.03;;
64313;SDS011;50650;48.180;11.524;2024-01-30T00:51:18;14.98;;;6.40;;
64313;SDS011;50650;48.180;11.524;2024-01-30T00:53:44;16.17;;;6.22;;
64313;SDS011;50650;48.180;11.524;2024-01-30T00:56:11;11.55;;;5.97;;
64313;SDS011;50650;48.180;11.524;2024-01-30T00:58:37;21.83;;;6.25;;
64313;SDS011;50650;48.180;11.524;2024-01-30T01:01:05;15.18;;;6.28;;
64313;SDS011;50650;48.180;11.524;2024-01-30T01:03:32;12.40;;;5.97;;
64313;SDS011;50650;48.180;11.524;2024-01-30T01:05:58;12.35;;;6.32;;
64313;SDS011;50650;48.180;11.524;2024-01-30T01:08:25;13.75;;;6.40;;
64313;SDS011;50650;48.180;11.524;2024-01-30T01:10:51;9.98;;;5.78;;
64313;SDS011;50650;48.180;11.524;2024-01-30T01:13:18;11.95;;;5.82;;
64313;SDS011;50650;48.180;11.524;2024-01-30T01:15:45;13.15;;;5.00;;
64313;SDS011;50650;48.180;11.524;2024-01-30T01:18:12;11.32;;;5.78;;
64313;SDS011;50650;48.180;11.524;2024-01-30T01:20:39;11.32;;;5.38;;
64313;SDS011;50650;48.180;11.524;2024-01-30T01:23:05;11.55;;;5.55;;
64313;SDS011;50650;48.180;11.524;2024-01-30T01:25:32;11.77;;;5.57;;
64313;SDS011;50650;48.180;11.524;2024-01-30T01:27:58;12.23;;;5.45;;
64313;SDS011;50650;48.180;11.524;2024-01-30T01:30:26;12.80;;;6.03;;
64313;SDS011;50650;48.180;11.524;2024-01-30T01:32:54;9.77;;;5.25;;
64313;SDS011;50650;48.180;11.524;2024-01-30T01:35:23;7.95;;;4.65;;
64313;SDS011;50650;48.180;11.524;2024-01-30T01:37:50;10.60;;;5.22;;
64313;SDS011;50650;48.180;11.524;2024-01-30T01:40:22;9.85;;;4.68;;
64313;SDS011;50650;48.180;11.524;2024-01-30T01:42:49;12.30;;;4.75;;
64313;SDS011;50650;48.180;11.524;2024-01-30T01:45:15;10.93;;;4.63;;
64313;SDS011;50650;48.180;11.524;2024-01-30T01:47:42;14.43;;;5.18;;
64313;SDS011;50650;48.180;11.524;2024-01-30T01:50:10;10.07;;;4.75;;
64313;SDS011;50650;48.180;11.524;2024-01-30T01:52:38;9.77;;;4.95;;
64313;SDS011;50650;48.180;11.524;2024-01-30T01:55:05;12.75;;;5.13;;
64313;SDS011;50650;48.180;11.524;2024-01-30T01:57:33;12.68;;;4.90;;
64313;SDS011;50650;48.180;11.524;2024-01-30T02:00:00;13.40;;;4.93;;
64313;SDS011;50650;48.180;11.524;2024-01-30T02:02:26;10.30;;;4.85;;
64313;SDS011;50650;48.180;11.524;2024-01-30T02:04:56;11.77;;;5.40;;
64313;SDS011;50650;48.180;11.524;2024-01-30T02:07:23;9.15;;;4.90;;
64313;SDS011;50650;48.180;11.524;2024-01-30T02:09:50;11.20;;;4.97;;
64313;SDS011;50650;48.180;11.524;2024-01-30T02:12:17;8.45;;;4.43;;
64313;SDS011;50650;48.180;11.524;2024-01-30T02:14:44;11.40;;;4.60;;
64313;SDS011;50650;48.180;11.524;2024-01-30T02:17:11;9.15;;;4.22;;
64313;SDS011;50650;48.180;11.524;2024-01-30T02:19:37;12.18;;;4.32;;
64313;SDS011;50650;48.180;11.524;2024-01-30T02:22:05;8.48;;;4.38;;
64313;SDS011;50650;48.180;11.524;2024-01-30T02:24:32;6.38;;;4.20;;
64313;SDS011;50650;48.180;11.524;2024-01-30T02:26:58;10.57;;;4.85;;
64313;SDS011;50650;48.180;11.524;2024-01-30T02:29:24;14.70;;;4.60;;
64313;SDS011;50650;48.180;11.524;2024-01-30T02:31:51;9.48;;;4.25;;
64313;SDS011;50650;48.180;11.524;2024-01-30T02:34:18;14.95;;;4.93;;
64313;SDS011;50650;48.180;11.524;2024-01-30T02:36:45;10.60;;;5.25;;
64313;SDS011;50650;48.180;11.524;2024-01-30T02:39:13;9.65;;;4.72;;
64313;SDS011;50650;48.180;11.524;2024-01-30T02:41:39;9.23;;;4.10;;
64313;SDS011;50650;48.180;11.524;2024-01-30T02:44:06;7.13;;;4.07;;
64313;SDS011;50650;48.180;11.524;2024-01-30T02:46:32;8.82;;;3.83;;
64313;SDS011;50650;48.180;11.524;2024-01-30T02:48:59;7.45;;;3.97;;
64313;SDS011;50650;48.180;11.524;2024-01-30T02:51:25;8.18;;;4.30;;
64313;SDS011;50650;48.180;11.524;2024-01-30T02:53:51;6.63;;;3.83;;
64313;SDS011;50650;48.180;11.524;2024-01-30T02:56:19;9.23;;;3.88;;
64313;SDS011;50650;48.180;11.524;2024-01-30T02:58:46;7.25;;;3.83;;
64313;SDS011;50650;48.180;11.524;2024-01-30T03:01:12;6.53;;;3.95;;
64313;SDS011;50650;48.180;11.524;2024-01-30T03:03:38;9.07;;;4.10;;
64313;SDS011;50650;48.180;11.524;2024-01-30T03:06:05;7.65;;;4.18;;
64313;SDS011;50650;48.180;11.524;2024-01-30T03:08:32;9.38;;;4.00;;
64313;SDS011;50650;48.180;11.524;2024-01-30T03:11:06;9.27;;;4.13;;
64313;SDS011;50650;48.180;11.524;2024-01-30T03:13:34;7.10;;;3.63;;
64313;SDS011;50650;48.180;11.524;2024-01-30T03:16:00;11.65;;;3.55;;
64313;SDS011;50650;48.180;11.524;2024-01-30T03:18:26;6.85;;;3.72;;
64313;SDS011;50650;48.180;11.524;2024-01-30T03:20:53;7.03;;;3.65;;
64313;SDS011;50650;48.180;11.524;2024-01-30T03:23:19;9.13;;;3.70;;
64313;SDS011;50650;48.180;11.524;2024-01-30T03:25:45;8.68;;;3.60;;
64313;SDS011;50650;48.180;11.524;2024-01-30T03:28:12;6.65;;;3.35;;
64313;SDS011;50650;48.180;11.524;2024-01-30T03:30:40;6.68;;;4.03;;
64313;SDS011;50650;48.180;11.524;2024-01-30T03:33:06;6.30;;;3.30;;
64313;SDS011;50650;48.180;11.524;2024-01-30T03:35:32;4.97;;;3.33;;
64313;SDS011;50650;48.180;11.524;2024-01-30T03:37:59;6.07;;;3.47;;
64313;SDS011;50650;48.180;11.524;2024-01-30T03:40:25;7.82;;;3.78;;
64313;SDS011;50650;48.180;11.524;2024-01-30T03:42:51;8.48;;;3.47;;
64313;SDS011;50650;48.180;11.524;2024-01-30T03:45:18;5.60;;;3.50;;
64313;SDS011;50650;48.180;11.524;2024-01-30T03:47:46;6.38;;;3.40;;
64313;SDS011;50650;48.180;11.524;2024-01-30T03:50:13;7.00;;;3.50;;
64313;SDS011;50650;48.180;11.524;2024-01-30T03:52:39;6.85;;;3.42;;
64313;SDS011;50650;48.180;11.524;2024-01-30T03:55:06;8.52;;;3.20;;
64313;SDS011;50650;48.180;11.524;2024-01-30T03:57:32;7.63;;;3.70;;
64313;SDS011;50650;48.180;11.524;2024-01-30T03:59:59;7.05;;;3.35;;
64313;SDS011;50650;48.180;11.524;2024-01-30T04:02:25;6.45;;;3.28;;
64313;SDS011;50650;48.180;11.524;2024-01-30T04:04:53;6.35;;;3.20;;
64313;SDS011;50650;48.180;11.524;2024-01-30T04:07:21;6.13;;;3.20;;
64313;SDS011;50650;48.180;11.524;2024-01-30T04:09:48;7.13;;;3.65;;
64313;SDS011;50650;48.180;11.524;2024-01-30T04:12:14;5.38;;;3.22;;
64313;SDS011;50650;48.180;11.524;2024-01-30T04:14:40;6.57;;;3.35;;
64313;SDS011;50650;48.180;11.524;2024-01-30T04:17:07;7.93;;;2.88;;
64313;SDS011;50650;48.180;11.524;2024-01-30T04:19:36;17.85;;;3.65;;
64313;SDS011;50650;48.180;11.524;2024-01-30T04:22:04;7.25;;;3.13;;
64313;SDS011;50650;48.180;11.524;2024-01-30T04:24:31;6.47;;;3.03;;
64313;SDS011;50650;48.180;11.524;2024-01-30T04:26:57;5.20;;;3.22;;
64313;SDS011;50650;48.180;11.524;2024-01-30T04:29:23;9.75;;;3.55;;
64313;SDS011;50650;48.180;11.524;2024-01-30T04:31:50;6.90;;;3.38;;
64313;SDS011;50650;48.180;11.524;2024-01-30T04:34:16;8.45;;;3.70;;
64313;SDS011;50650;48.180;11.524;2024-01-30T04:36:43;10.65;;;3.50;;
64313;SDS011;50650;48.180;11.524;2024-01-30T04:39:11;11.27;;;3.55;;
64313;SDS011;50650;48.180;11.524;2024-01-30T04:41:38;7.30;;;3.38;;
64313;SDS011;50650;48.180;11.524;2024-01-30T04:44:04;7.68;;;3.63;;
64313;SDS011;50650;48.180;11.524;2024-01-30T04:46:31;12.32;;;3.33;;
64313;SDS011;50650;48.180;11.524;2024-01-30T04:48:59;9.55;;;3.80;;
64313;SDS011;50650;48.180;11.524;2024-01-30T04:51:25;8.32;;;3.00;;
64313;SDS011;50650;48.180;11.524;2024-01-30T04:53:52;10.05;;;3.65;;
64313;SDS011;50650;48.180;11.524;2024-01-30T04:56:20;7.38;;;3.15;;
64313;SDS011;50650;48.180;11.524;2024-01-30T04:58:46;7.03;;;3.22;;
64313;SDS011;50650;48.180;11.524;2024-01-30T05:01:14;8.15;;;2.78;;
64313;SDS011;50650;48.180;11.524;2024-01-30T05:03:42;8.07;;;3.10;;
64313;SDS011;50650;48.180;11.524;2024-01-30T05:06:08;7.68;;;3.67;;
64313;SDS011;50650;48.180;11.524;2024-01-30T05:08:34;5.75;;;2.70;;
64313;SDS011;50650;48.180;11.524;2024-01-30T05:11:01;8.60;;;3.05;;
64313;SDS011;50650;48.180;11.524;2024-01-30T05:13:30;8.15;;;3.05;;
64313;SDS011;50650;48.180;11.524;2024-01-30T05:15:56;8.05;;;3.20;;
64313;SDS011;50650;48.180;11.524;2024-01-30T05:18:22;9.52;;;3.22;;
64313;SDS011;50650;48.180;11.524;2024-01-30T05:20:49;8.30;;;3.25;;
64313;SDS011;50650;48.180;11.524;2024-01-30T05:23:16;11.82;;;3.33;;
64313;SDS011;50650;48.180;11.524;2024-01-30T05:25:42;7.03;;;3.10;;
64313;SDS011;50650;48.180;11.524;2024-01-30T05:28:09;8.27;;;2.90;;
64313;SDS011;50650;48.180;11.524;2024-01-30T05:30:36;11.20;;;3.03;;
64313;SDS011;50650;48.180;11.524;2024-01-30T05:33:03;13.07;;;3.45;;
64313;SDS011;50650;48.180;11.524;2024-01-30T05:35:30;5.05;;;2.83;;
64313;SDS011;50650;48.180;11.524;2024-01-30T05:37:56;6.72;;;2.63;;
64313;SDS011;50650;48.180;11.524;2024-01-30T05:40:22;7.00;;;2.90;;
64313;SDS011;50650;48.180;11.524;2024-01-30T05:42:49;5.82;;;3.28;;
64313;SDS011;50650;48.180;11.524;2024-01-30T05:45:15;7.45;;;2.72;;
64313;SDS011;50650;48.180;11.524;2024-01-30T05:47:43;8.82;;;3.42;;
64313;SDS011;50650;48.180;11.524;2024-01-30T05:50:09;8.52;;;3.40;;
64313;SDS011;50650;48.180;11.524;2024-01-30T05:52:36;5.80;;;3.22;;
64313;SDS011;50650;48.180;11.524;2024-01-30T05:55:03;6.70;;;3.22;;
64313;SDS011;50650;48.180;11.524;2024-01-30T05:57:30;14.70;;;4.30;;
64313;SDS011;50650;48.180;11.524;2024-01-30T05:59:57;9.30;;;3.38;;
64313;SDS011;50650;48.180;11.524;2024-01-30T06:02:23;11.93;;;3.40;;
64313;SDS011;50650;48.180;11.524;2024-01-30T06:04:51;12.38;;;3.45;;
64313;SDS011;50650;48.180;11.524;2024-01-30T06:07:17;8.57;;;3.40;;
64313;SDS011;50650;48.180;11.524;2024-01-30T06:09:44;13.77;;;3.88;;
64313;SDS011;50650;48.180;11.524;2024-01-30T06:12:11;12.38;;;3.55;;
64313;SDS011;50650;48.180;11.524;2024-01-30T06:14:38;14.45;;;4.05;;
64313;SDS011;50650;48.180;11.524;2024-01-30T06:17:04;6.72;;;3.08;;
64313;SDS011;50650;48.180;11.524;2024-01-30T06:19:31;9.45;;;3.58;;
64313;SDS011;50650;48.180;11.524;2024-01-30T06:21:58;12.27;;;3.55;;
64313;SDS011;50650;48.180;11.524;2024-01-30T06:24:25;13.40;;;3.75;;
64313;SDS011;50650;48.180;11.524;2024-01-30T06:26:52;4.93;;;2.75;;
64313;SDS011;50650;48.180;11.524;2024-01-30T06:29:19;6.70;;;3.03;;
64313;SDS011;50650;48.180;11.524;2024-01-30T06:31:46;8.40;;;2.78;;
64313;SDS011;50650;48.180;11.524;2024-01-30T06:34:12;9.57;;;3.08;;
64313;SDS011;50650;48.180;11.524;2024-01-30T06:36:38;8.63;;;3.63;;
64313;SDS011;50650;48.180;11.524;2024-01-30T06:39:06;10.27;;;2.85;;
64313;SDS011;50650;48.180;11.524;2024-01-30T06:41:33;10.77;;;3.60;;
64313;SDS011;50650;48.180;11.524;2024-01-30T06:44:01;13.20;;;3.65;;
64313;SDS011;50650;48.180;11.524;2024-01-30T06:46:28;7.35;;;2.97;;
64313;SDS011;50650;48.180;11.524;2024-01-30T06:48:54;6.50;;;2.83;;
64313;SDS011;50650;48.180;11.524;2024-01-30T06:51:21;11.02;;;3.10;;
64313;SDS011;50650;48.180;11.524;2024-01-30T06:53:47;8.77;;;2.95;;
64313;SDS011;50650;48.180;11.524;2024-01-30T06:56:15;12.75;;;3.45;;
64313;SDS011;50650;48.180;11.524;2024-01-30T06:58:45;8.70;;;2.75;;
64313;SDS011;50650;48.180;11.524;2024-01-30T07:01:12;9.10;;;2.85;;
64313;SDS011;50650;48.180;11.524;2024-01-30T07:03:38;15.70;;;3.50;;
64313;SDS011;50650;48.180;11.524;2024-01-30T07:06:05;20.85;;;3.50;;
64313;SDS011;50650;48.180;11.524;2024-01-30T07:08:31;12.63;;;3.97;;
64313;SDS011;50650;48.180;11.524;2024-01-30T07:10:57;12.07;;;3.67;;
64313;SDS011;50650;48.180;11.524;2024-01-30T07:13:25;14.52;;;3.40;;
64313;SDS011;50650;48.180;11.524;2024-01-30T07:15:53;9.43;;;3.42;;
64313;SDS011;50650;48.180;11.524;2024-01-30T07:18:19;15.50;;;3.92;;
64313;SDS011;50650;48.180;11.524;2024-01-30T07:20:46;18.77;;;3.13;;
64313;SDS011;50650;48.180;11.524;2024-01-30T07:23:12;7.78;;;3.60;;
64313;SDS011;50650;48.180;11.524;2024-01-30T07:25:41;10.95;;;3.70;;
64313;SDS011;50650;48.180;11.524;2024-01-30T07:28:07;6.25;;;2.88;;
64313;SDS011;50650;48.180;11.524;2024-01-30T07:30:36;8.18;;;3.80;;
64313;SDS011;50650;48.180;11.524;2024-01-30T07:33:02;10.38;;;3.53;;
64313;SDS011;50650;48.180;11.524;2024-01-30T07:35:29;12.95;;;4.10;;
64313;SDS011;50650;48.180;11.524;2024-01-30T07:37:58;7.63;;;3.53;;
64313;SDS011;50650;48.180;11.524;2024-01-30T07:40:25;16.98;;;4.10;;
64313;SDS011;50650;48.180;11.524;2024-01-30T07:42:52;20.65;;;4.35;;
64313;SDS011;50650;48.180;11.524;2024-01-30T07:45:19;10.07;;;3.95;;
64313;SDS011;50650;48.180;11.524;2024-01-30T07:47:48;16.70;;;5.90;;
64313;SDS011;50650;48.180;11.524;2024-01-30T07:50:15;21.02;;;5.45;;
64313;SDS011;50650;48.180;11.524;2024-01-30T07:52:41;23.35;;;5.18;;
64313;SDS011;50650;48.180;11.524;2024-01-30T07:55:08;25.80;;;4.88;;
64313;SDS011;50650;48.180;11.524;2024-01-30T07:57:38;12.43;;;3.72;;
64313;SDS011;50650;48.180;11.524;2024-01-30T08:00:05;12.35;;;3.90;;
64313;SDS011;50650;48.180;11.524;2024-01-30T08:02:32;21.73;;;4.10;;
64313;SDS011;50650;48.180;11.524;2024-01-30T08:05:00;11.48;;;3.95;;
64313;SDS011;50650;48.180;11.524;2024-01-30T08:07:27;10.65;;;4.03;;
64313;SDS011;50650;48.180;11.524;2024-01-30T08:09:54;12.63;;;4.07;;
64313;SDS011;50650;48.180;11.524;2024-01-30T08:12:21;10.55;;;4.30;;
64313;SDS011;50650;48.180;11.524;2024-01-30T08:14:47;14.90;;;4.28;;
64313;SDS011;50650;48.180;11.524;2024-01-30T08:17:14;14.02;;;4.38;;
64313;SDS011;50650;48.180;11.524;2024-01-30T08:19:40;11.40;;;4.10;;
64313;SDS011;50650;48.180;11.524;2024-01-30T08:22:08;15.73;;;4.65;;
64313;SDS011;50650;48.180;11.524;2024-01-30T08:24:34;13.32;;;4.63;;
64313;SDS011;50650;48.180;11.524;2024-01-30T08:27:00;15.45;;;4.15;;
64313;SDS011;50650;48.180;11.524;2024-01-30T08:29:27;14.00;;;4.43;;
64313;SDS011;50650;48.180;11.524;2024-01-30T08:31:54;11.40;;;3.83;;
64313;SDS011;50650;48.180;11.524;2024-01-30T08:34:21;17.88;;;4.13;;
64313;SDS011;50650;48.180;11.524;2024-01-30T08:36:47;12.75;;;4.00;;
64313;SDS011;50650;48.180;11.524;2024-01-30T08:39:15;8.45;;;4.32;;
64313;SDS011;50650;48.180;11.524;2024-01-30T08:41:41;37.05;;;5.30;;
64313;SDS011;50650;48.180;11.524;2024-01-30T08:44:08;21.83;;;4.13;;
64313;SDS011;50650;48.180;11.524;2024-01-30T08:46:36;19.05;;;4.38;;
64313;SDS011;50650;48.180;11.524;2024-01-30T08:49:02;11.82;;;3.85;;
64313;SDS011;50650;48.180;11.524;2024-01-30T08:51:29;13.38;;;4.18;;
64313;SDS011;50650;48.180;11.524;2024-01-30T08:53:55;20.02;;;4.95;;
64313;SDS011;50650;48.180;11.524;2024-01-30T08:56:23;7.75;;;4.05;;
64313;SDS011;50650;48.180;11.524;2024-01-30T08:58:49;10.88;;;4.75;;
64313;SDS011;50650;48.180;11.524;2024-01-30T09:01:16;9.25;;;4.13;;
64313;SDS011;50650;48.180;11.524;2024-01-30T09:03:42;10.93;;;3.72;;
64313;SDS011;50650;48.180;11.524;2024-01-30T09:06:11;8.40;;;3.47;;
64313;SDS011;50650;48.180;11.524;2024-01-30T09:08:37;8.70;;;3.78;;
64313;SDS011;50650;48.180;11.524;2024-01-30T09:11:08;68.18;;;5.88;;
64313;SDS011;50650;48.180;11.524;2024-01-30T09:13:36;26.25;;;5.13;;
64313;SDS011;50650;48.180;11.524;2024-01-30T09:16:02;29.17;;;4.75;;
64313;SDS011;50650;48.180;11.524;2024-01-30T09:18:29;20.77;;;4.15;;
64313;SDS011;50650;48.180;11.524;2024-01-30T09:20:55;8.63;;;3.90;;
64313;SDS011;50650;48.180;11.524;2024-01-30T09:23:22;9.77;;;3.78;;
64313;SDS011;50650;48.180;11.524;2024-01-30T09:25:48;11.95;;;3.85;;
64313;SDS011;50650;48.180;11.524;2024-01-30T09:28:15;12.45;;;4.20;;
64313;SDS011;50650;48.180;11.524;2024-01-30T09:30:43;10.70;;;4.40;;
64313;SDS011;50650;48.180;11.524;2024-01-30T09:33:10;41.42;;;5.03;;
64313;SDS011;50650;48.180;11.524;2024-01-30T09:35:36;21.50;;;4.88;;
64313;SDS011;50650;48.180;11.524;2024-01-30T09:38:03;19.45;;;4.30;;
64313;SDS011;50650;48.180;11.524;2024-01-30T09:40:29;13.80;;;4.15;;
64313;SDS011;50650;48.180;11.524;2024-01-30T09:42:56;14.18;;;4.43;;
64313;SDS011;50650;48.180;11.524;2024-01-30T09:45:24;22.02;;;3.92;;
64313;SDS011;50650;48.180;11.524;2024-01-30T09:47:52;10.48;;;3.22;;
64313;SDS011;50650;48.180;11.524;2024-01-30T09:50:19;14.52;;;3.55;;
64313;SDS011;50650;48.180;11.524;2024-01-30T09:52:46;32.08;;;3.92;;
64313;SDS011;50650;48.180;11.524;2024-01-30T09:55:13;17.67;;;3.50;;
64313;SDS011;50650;48.180;11.524;2024-01-30T09:57:41;7.15;;;2.90;;
64313;SDS011;50650;48.180;11.524;2024-01-30T10:00:08;11.80;;;3.13;;
64313;SDS011;50650;48.180;11.524;2024-01-30T10:02:35;11.88;;;3.33;;
64313;SDS011;50650;48.180;11.524;2024-01-30T10:05:03;7.20;;;3.08;;
64313;SDS011;50650;48.180;11.524;2024-01-30T10:07:30;11.20;;;3.17;;
64313;SDS011;50650;48.180;11.524;2024-01-30T10:09:56;11.52;;;3.22;;
64313;SDS011;50650;48.180;11.524;2024-01-30T10:12:26;10.00;;;2.80;;
64313;SDS011;50650;48.180;11.524;2024-01-30T10:14:53;8.40;;;2.83;;
64313;SDS011;50650;48.180;11.524;2024-01-30T10:17:20;7.20;;;2.78;;
64313;SDS011;50650;48.180;11.524;2024-01-30T10:19:47;8.57;;;2.80;;
64313;SDS011;50650;48.180;11.524;2024-01-30T10:22:15;11.75;;;2.78;;
64313;SDS011;50650;48.180;11.524;2024-01-30T10:24:41;4.15;;;2.80;;
64313;SDS011;50650;48.180;11.524;2024-01-30T10:27:10;11.25;;;2.90;;
64313;SDS011;50650;48.180;11.524;2024-01-30T10:29:36;11.38;;;2.55;;
64313;SDS011;50650;48.180;11.524;2024-01-30T10:32:04;6.75;;;2.50;;
64313;SDS011;50650;48.180;11.524;2024-01-30T10:34:31;6.30;;;2.95;;
64313;SDS011;50650;48.180;11.524;2024-01-30T10:36:59;11.50;;;2.42;;
64313;SDS011;50650;48.180;11.524;2024-01-30T10:39:29;6.57;;;2.45;;
64313;SDS011;50650;48.180;11.524;2024-01-30T10:41:59;8.10;;;2.33;;
64313;SDS011;50650;48.180;11.524;2024-01-30T10:44:33;7.80;;;2.70;;
64313;SDS011;50650;48.180;11.524;2024-01-30T10:47:05;6.85;;;2.35;;
64313;SDS011;50650;48.180;11.524;2024-01-30T10:49:33;19.40;;;2.70;;
64313;SDS011;50650;48.180;11.524;2024-01-30T10:51:59;27.25;;;2.53;;
64313;SDS011;50650;48.180;11.524;2024-01-30T10:54:26;7.90;;;1.45;;
64313;SDS011;50650;48.180;11.524;2024-01-30T10:56:54;8.60;;;1.42;;
64313;SDS011;50650;48.180;11.524;2024-01-30T10:59:21;25.13;;;2.55;;
64313;SDS011;50650;48.180;11.524;2024-01-30T11:01:52;15.35;;;1.60;;
64313;SDS011;50650;48.180;11.524;2024-01-30T11:04:19;8.95;;;1.52;;
64313;SDS011;50650;48.180;11.524;2024-01-30T11:06:45;3.22;;;1.33;;
64313;SDS011;50650;48.180;11.524;2024-01-30T11:09:16;8.13;;;1.45;;
64313;SDS011;50650;48.180;11.524;2024-01-30T11:11:50;4.80;;;1.33;;
64313;SDS011;50650;48.180;11.524;2024-01-30T11:14:18;9.55;;;1.83;;
64313;SDS011;50650;48.180;11.524;2024-01-30T11:16:51;7.72;;;1.80;;
64313;SDS011;50650;48.180;11.524;2024-01-30T11:19:30;89.10;;;4.75;;
64313;SDS011;50650;48.180;11.524;2024-01-30T11:21:57;6.15;;;1.90;;
64313;SDS011;50650;48.180;11.524;2024-01-30T11:24:24;30.27;;;2.30;;
64313;SDS011;50650;48.180;11.524;2024-01-30T11:26:55;14.85;;;1.92;;
64313;SDS011;50650;48.180;11.524;2024-01-30T11:29:25;6.85;;;1.48;;
64313;SDS011;50650;48.180;11.524;2024-01-30T11:31:51;4.38;;;1.80;;
64313;SDS011;50650;48.180;11.524;2024-01-30T11:34:24;3.35;;;1.52;;
64313;SDS011;50650;48.180;11.524;2024-01-30T11:36:51;7.15;;;1.63;;
64313;SDS011;50650;48.180;11.524;2024-01-30T11:39:23;2.50;;;1.58;;
64313;SDS011;50650;48.180;11.524;2024-01-30T11:41:51;7.07;;;1.63;;
64313;SDS011;50650;48.180;11.524;2024-01-30T11:44:18;7.15;;;1.80;;
64313;SDS011;50650;48.180;11.524;2024-01-30T11:46:46;7.38;;;1.45;;
64313;SDS011;50650;48.180;11.524;2024-01-30T11:49:13;4.63;;;1.20;;
64313;SDS011;50650;48.180;11.524;2024-01-30T11:51:39;12.23;;;1.60;;
64313;SDS011;50650;48.180;11.524;2024-01-30T11:54:07;3.13;;;1.30;;
64313;SDS011;50650;48.180;11.524;2024-01-30T11:56:33;13.52;;;1.92;;
64313;SDS011;50650;48.180;11.524;2024-01-30T11:59:00;13.68;;;1.60;;
64313;SDS011;50650;48.180;11.524;2024-01-30T12:01:27;18.20;;;2.03;;
64313;SDS011;50650;48.180;11.524;2024-01-30T12:03:57;13.80;;;1.30;;
64313;SDS011;50650;48.180;11.524;2024-01-30T12:06:24;24.98;;;2.13;;
64313;SDS011;50650;48.180;11.524;2024-01-30T12:08:57;8.75;;;1.85;;
64313;SDS011;50650;48.180;11.524;2024-01-30T12:11:24;7.60;;;1.45;;
64313;SDS011;50650;48.180;11.524;2024-01-30T12:13:50;14.13;;;1.60;;
64313;SDS011;50650;48.180;11.524;2024-01-30T12:16:17;8.82;;;1.45;;
64313;SDS011;50650;48.180;11.524;2024-01-30T12:18:46;4.00;;;1.30;;
64313;SDS011;50650;48.180;11.524;2024-01-30T12:21:15;12.20;;;1.45;;
64313;SDS011;50650;48.180;11.524;2024-01-30T12:23:42;5.13;;;1.73;;
64313;SDS011;50650;48.180;11.524;2024-01-30T12:26:09;19.15;;;1.70;;
64313;SDS011;50650;48.180;11.524;2024-01-30T12:28:35;5.70;;;1.48;;
64313;SDS011;50650;48.180;11.524;2024-01-30T12:31:02;18.50;;;1.58;;
64313;SDS011;50650;48.180;11.524;2024-01-30T12:33:29;2.60;;;1.05;;
64313;SDS011;50650;48.180;11.524;2024-01-30T12:35:56;11.45;;;1.48;;
64313;SDS011;50650;48.180;11.524;2024-01-30T12:38:24;5.78;;;1.30;;
64313;SDS011;50650;48.180;11.524;2024-01-30T12:40:53;23.50;;;2.58;;
64313;SDS011;50650;48.180;11.524;2024-01-30T12:43:20;9.43;;;1.33;;
64313;SDS011;50650;48.180;11.524;2024-01-30T12:45:47;42.78;;;2.67;;
64313;SDS011;50650;48.180;11.524;2024-01-30T12:48:24;14.15;;;1.40;;
64313;SDS011;50650;48.180;11.524;2024-01-30T12:50:50;15.57;;;1.30;;
64313;SDS011;50650;48.180;11.524;2024-01-30T12:53:17;15.88;;;1.30;;
64313;SDS011;50650;48.180;11.524;2024-01-30T12:55:48;13.70;;;1.48;;
64313;SDS011;50650;48.180;11.524;2024-01-30T12:58:14;5.90;;;1.40;;
64313;SDS011;50650;48.180;11.524;2024-01-30T13:00:41;8.43;;;1.30;;
64313;SDS011;50650;48.180;11.524;2024-01-30T13:03:08;2.05;;;0.82;;
64313;SDS011;50650;48.180;11.524;2024-01-30T13:05:34;12.13;;;1.45;;
64313;SDS011;50650;48.180;11.524;2024-01-30T13:08:01;8.32;;;1.00;;
64313;SDS011;50650;48.180;11.524;2024-01-30T13:10:27;2.97;;;1.13;;
64313;SDS011;50650;48.180;11.524;2024-01-30T13:12:55;94.07;;;4.40;;
64313;SDS011;50650;48.180;11.524;2024-01-30T13:15:21;28.20;;;1.92;;
64313;SDS011;50650;48.180;11.524;2024-01-30T13:17:48;9.70;;;1.42;;
64313;SDS011;50650;48.180;11.524;2024-01-30T13:20:14;27.05;;;1.92;;
64313;SDS011;50650;48.180;11.524;2024-01-30T13:22:44;17.65;;;1.85;;
64313;SDS011;50650;48.180;11.524;2024-01-30T13:25:10;17.23;;;1.60;;
64313;SDS011;50650;48.180;11.524;2024-01-30T13:27:37;4.50;;;1.20;;
64313;SDS011;50650;48.180;11.524;2024-01-30T13:30:06;5.28;;;2.03;;
64313;SDS011;50650;48.180;11.524;2024-01-30T13:32:34;6.28;;;1.65;;
64313;SDS011;50650;48.180;11.524;2024-01-30T13:35:00;5.78;;;1.83;;
64313;SDS011;50650;48.180;11.524;2024-01-30T13:37:27;8.10;;;1.77;;
64313;SDS011;50650;48.180;11.524;2024-01-30T13:39:53;3.20;;;1.42;;
64313;SDS011;50650;48.180;11.524;2024-01-30T13:42:19;5.90;;;1.60;;
64313;SDS011;50650;48.180;11.524;2024-01-30T13:44:46;5.28;;;1.73;;
64313;SDS011;50650;48.180;11.524;2024-01-30T13:47:13;6.05;;;1.73;;
64313;SDS011;50650;48.180;11.524;2024-01-30T13:49:40;18.40;;;2.00;;
64313;SDS011;50650;48.180;11.524;2024-01-30T13:52:06;7.85;;;1.70;;
64313;SDS011;50650;48.180;11.524;2024-01-30T13:54:33;6.15;;;1.40;;
64313;SDS011;50650;48.180;11.524;2024-01-30T13:56:59;9.35;;;1.88;;
64313;SDS011;50650;48.180;11.524;2024-01-30T13:59:26;7.75;;;1.63;;
64313;SDS011;50650;48.180;11.524;2024-01-30T14:01:52;14.35;;;1.83;;
64313;SDS011;50650;48.180;11.524;2024-01-30T14:04:20;5.28;;;1.90;;
64313;SDS011;50650;48.180;11.524;2024-01-30T14:06:49;7.07;;;1.98;;
64313;SDS011;50650;48.180;11.524;2024-01-30T14:09:16;14.40;;;2.00;;
64313;SDS011;50650;48.180;11.524;2024-01-30T14:11:42;9.20;;;1.98;;
64313;SDS011;50650;48.180;11.524;2024-01-30T14:14:08;14.93;;;1.80;;
64313;SDS011;50650;48.180;11.524;2024-01-30T14:16:35;4.63;;;1.90;;
64313;SDS011;50650;48.180;11.524;2024-01-30T14:19:01;7.72;;;1.95;;
64313;SDS011;50650;48.180;11.524;2024-01-30T14:21:29;5.13;;;1.70;;
64313;SDS011;50650;48.180;11.524;2024-01-30T14:23:55;6.38;;;1.98;;
64313;SDS011;50650;48.180;11.524;2024-01-30T14:26:22;7.85;;;1.75;;
64313;SDS011;50650;48.180;11.524;2024-01-30T14:28:48;7.05;;;1.65;;